Time;durP1;ratioP1;P1;durP2;ratioP2;P2;SDS_P1;SDS_P2;PMS_P1;PMS_P2;Temp;Humidity;BMP_temperature;BMP_pressure;BME280_temperature;BME280_humidity;BME280_pressure;Samples;Min_cycle;Max_cycle;Signal;HPM_P1;HPM_P2
2023/12/24 00:02:00;;;;;;;;;;;;;;;6.18;62.22;98751.34;5032820;28;19913;-85
2023/12/24 00:04:25;;;;;;;;;;;;;;;6.20;62.74;98746.75;5031400;28;20309;-84
2023/12/24 00:06:50;;;;;;;;;;;;;;;6.21;62.48;98758.06;5031320;28;19916;-85
2023/12/24 00:09:15;;;;;;;;;;;;;;;6.22;63.04;98764.94;5032526;28;19943;-86
2023/12/24 00:11:41;;;;;;;;;;;;;;;6.18;62.86;98763.63;5031341;28;19920;-83
2023/12/24 00:14:06;;;;;;;;;;;;;;;6.18;62.23;98779.34;5032756;28;19917;-86
2023/12/24 00:16:31;;;;;;;;;;;;;;;6.18;62.49;98785.41;5032479;28;20402;-85
2023/12/24 00:18:57;;;;;;;;;;;;;;;6.20;63.36;98772.97;5031146;28;19966;-86
2023/12/24 00:21:22;;;;;;;;;;;;;;;6.20;62.77;98785.25;5031136;28;20416;-87
2023/12/24 00:23:49;;;;;;;;;;;;;;;6.23;62.67;98790.97;5032627;28;19913;-86
2023/12/24 00:26:14;;;;;;;;;;;;;;;6.26;62.47;98798.50;5031233;28;20444;-87
2023/12/24 00:28:40;;;;;;;;;;;;;;;6.29;62.30;98798.16;5031117;28;19952;-86
2023/12/24 00:31:05;;;;;;;;;;;;;;;6.31;61.98;98790.94;5030947;28;19921;-87
2023/12/24 00:33:30;;;;;;;;;;;;;;;6.36;61.96;98793.06;5031027;28;19913;-86
2023/12/24 00:35:55;;;;;;;;;;;;;;;6.38;62.53;98783.22;5032311;28;19927;-87
2023/12/24 00:38:21;;;;;;;;;;;;;;;6.40;62.60;98789.09;5030875;28;19947;-86
2023/12/24 00:40:46;;;;;;;;;;;;;;;6.41;62.31;98808.28;5032149;28;20474;-85
2023/12/24 00:43:11;;;;;;;;;;;;;;;6.40;62.67;98812.72;5030806;28;19920;-83
2023/12/24 00:45:37;;;;;;;;;;;;;;;6.39;62.10;98811.06;5031974;28;19923;-85
2023/12/24 00:48:02;;;;;;;;;;;;;;;6.42;62.33;98815.16;5030621;28;19913;-85
2023/12/24 00:50:27;;;;;;;;;;;;;;;6.44;62.55;98811.38;5032306;28;20011;-88
2023/12/24 00:52:52;;;;;;;;;;;;;;;6.46;62.33;98795.47;5032354;28;19967;-87
2023/12/24 00:55:18;;;;;;;;;;;;;;;6.47;62.50;98797.13;5030296;28;19913;-87
2023/12/24 00:57:43;;;;;;;;;;;;;;;6.48;62.67;98799.56;5030386;28;20007;-85
2023/12/24 01:00:09;;;;;;;;;;;;;;;6.49;62.40;98806.44;5030662;28;19913;-86
2023/12/24 01:02:34;;;;;;;;;;;;;;;6.51;62.56;98803.66;5030715;28;19920;-86
2023/12/24 01:04:59;;;;;;;;;;;;;;;6.55;62.49;98799.69;5030649;28;19913;-85
2023/12/24 01:07:24;;;;;;;;;;;;;;;6.59;62.78;98798.38;5030654;28;20012;-86
2023/12/24 01:09:50;;;;;;;;;;;;;;;6.61;63.64;98796.41;5030365;28;19924;-86
2023/12/24 01:12:15;;;;;;;;;;;;;;;6.69;63.48;98793.75;5034307;28;19913;-86
2023/12/24 01:14:41;;;;;;;;;;;;;;;6.86;62.66;98794.50;5035814;28;20444;-87
2023/12/24 01:17:06;;;;;;;;;;;;;;;7.14;63.02;98792.19;5035740;28;19917;-86
2023/12/24 01:19:32;;;;;;;;;;;;;;;7.38;63.57;98780.69;5034592;28;19913;-84
2023/12/24 01:21:57;;;;;;;;;;;;;;;7.67;63.71;98779.97;5034594;28;19919;-86
2023/12/24 01:24:22;;;;;;;;;;;;;;;7.92;62.60;98776.94;5034412;28;19963;-85
2023/12/24 01:26:48;;;;;;;;;;;;;;;8.13;62.77;98778.84;5035894;28;19960;-85
2023/12/24 01:29:13;;;;;;;;;;;;;;;8.31;62.40;98790.84;5034249;28;19970;-83
2023/12/24 01:31:39;;;;;;;;;;;;;;;8.45;62.32;98776.91;5034076;28;19921;-83
2023/12/24 01:34:04;;;;;;;;;;;;;;;8.59;60.90;98773.44;5035386;28;19921;-84
2023/12/24 01:36:29;;;;;;;;;;;;;;;8.67;61.92;98765.44;5035854;28;19913;-83
2023/12/24 01:38:55;;;;;;;;;;;;;;;8.77;61.41;98771.22;5035460;28;19928;-84
2023/12/24 01:41:20;;;;;;;;;;;;;;;8.87;60.94;98771.75;5035373;28;19913;-83
2023/12/24 01:43:45;;;;;;;;;;;;;;;9.03;60.36;98767.28;5034131;28;20432;-82
2023/12/24 01:46:12;;;;;;;;;;;;;;;9.15;60.17;98774.50;5033850;28;19913;-82
2023/12/24 01:48:38;;;;;;;;;;;;;;;9.24;59.62;98772.56;5035271;28;20314;-83
2023/12/24 01:51:03;;;;;;;;;;;;;;;9.33;58.97;98762.69;5035140;28;19917;-83
2023/12/24 01:53:29;;;;;;;;;;;;;;;9.42;58.86;98774.75;5034070;28;19913;-82
2023/12/24 01:55:55;;;;;;;;;;;;;;;9.47;59.18;98778.44;5033768;28;20344;-81
2023/12/24 01:58:20;;;;;;;;;;;;;;;9.51;58.95;98779.69;5034900;28;19963;-81
2023/12/24 02:00:46;;;;;;;;;;;;;;;9.53;58.98;98782.13;5033729;28;20356;-83
2023/12/24 02:03:12;;;;;;;;;;;;;;;9.55;58.71;98791.47;5033626;28;19920;-83
2023/12/24 02:05:37;;;;;;;;;;;;;;;9.59;58.61;98789.28;5033599;28;20305;-84
2023/12/24 02:08:03;;;;;;;;;;;;;;;9.64;58.93;98794.78;5035056;28;19913;-83
2023/12/24 02:10:29;;;;;;;;;;;;;;;9.65;58.78;98785.06;5033759;28;19917;-82
2023/12/24 02:12:54;;;;;;;;;;;;;;;9.73;58.51;98793.69;5033489;28;19913;-83
2023/12/24 02:15:20;;;;;;;;;;;;;;;9.77;58.73;98789.66;5033581;28;19913;-83
2023/12/24 02:17:45;;;;;;;;;;;;;;;9.80;58.49;98784.00;5034868;28;19916;-84
2023/12/24 02:20:11;;;;;;;;;;;;;;;9.86;58.55;98775.31;5033573;28;19913;-84
2023/12/24 02:22:36;;;;;;;;;;;;;;;9.92;58.26;98796.66;5034515;28;19921;-84
2023/12/24 02:25:02;;;;;;;;;;;;;;;9.97;57.88;98812.72;5034518;28;19999;-82
2023/12/24 02:27:40;;;;;;;;;;;;;;;9.97;58.57;98808.25;5034218;28;19913;-83
2023/12/24 02:30:10;;;;;;;;;;;;;;;9.97;58.51;98808.25;5034248;28;19967;-83
2023/12/24 02:32:37;;;;;;;;;;;;;;;9.98;57.86;98816.97;5034519;28;19913;-83
2023/12/24 02:35:03;;;;;;;;;;;;;;;9.97;58.29;98813.53;5033063;28;19913;-83
2023/12/24 02:37:29;;;;;;;;;;;;;;;9.97;58.64;98820.63;5033999;28;20424;-84
2023/12/24 02:39:54;;;;;;;;;;;;;;;9.94;58.84;98821.81;5033042;28;19913;-83
2023/12/24 02:42:19;;;;;;;;;;;;;;;9.91;58.59;98838.03;5034157;28;20279;-83
2023/12/24 02:44:44;;;;;;;;;;;;;;;9.90;58.83;98849.59;5032966;28;19913;-84
2023/12/24 02:47:10;;;;;;;;;;;;;;;9.88;58.68;98852.41;5034031;28;19913;-82
2023/12/24 02:49:35;;;;;;;;;;;;;;;9.88;58.87;98854.22;5034305;28;19905;-83
2023/12/24 02:52:00;;;;;;;;;;;;;;;9.87;58.64;98853.41;5032788;28;19913;-83
2023/12/24 02:54:26;;;;;;;;;;;;;;;9.84;58.77;98851.16;5033967;28;20059;-82
2023/12/24 02:56:51;;;;;;;;;;;;;;;9.84;58.99;98863.53;5034028;28;19920;-83
2023/12/24 02:59:16;;;;;;;;;;;;;;;9.79;58.80;98865.91;5032915;28;19913;-84
2023/12/24 03:01:42;;;;;;;;;;;;;;;9.75;59.06;98870.75;5033706;28;19920;-82
2023/12/24 03:04:07;;;;;;;;;;;;;;;9.72;58.60;98872.94;5032319;28;19913;-83
2023/12/24 03:06:32;;;;;;;;;;;;;;;9.68;59.31;98874.34;5033640;28;19913;-83
2023/12/24 03:08:58;;;;;;;;;;;;;;;9.67;59.26;98872.69;5033914;28;19913;-83
2023/12/24 03:11:23;;;;;;;;;;;;;;;9.64;59.04;98880.97;5032416;28;19961;-83
2023/12/24 03:13:48;;;;;;;;;;;;;;;9.59;59.33;98889.44;5033684;28;19914;-82
2023/12/24 03:16:14;;;;;;;;;;;;;;;9.52;59.45;98892.00;5032388;28;19913;-84
2023/12/24 03:18:40;;;;;;;;;;;;;;;9.43;59.44;98895.75;5033639;28;19999;-82
2023/12/24 03:21:07;;;;;;;;;;;;;;;9.37;59.58;98893.88;5032199;28;19960;-84
2023/12/24 03:23:32;;;;;;;;;;;;;;;9.30;59.50;98894.78;5032213;28;19909;-83
2023/12/24 03:25:57;;;;;;;;;;;;;;;9.22;59.96;98898.34;5033384;28;19913;-84
2023/12/24 03:28:22;;;;;;;;;;;;;;;9.14;60.17;98906.34;5033430;28;20314;-83
2023/12/24 03:30:48;;;;;;;;;;;;;;;9.09;60.33;98909.53;5031996;28;19917;-84
2023/12/24 03:33:13;;;;;;;;;;;;;;;8.99;60.42;98916.91;5032942;28;19913;-84
2023/12/24 03:35:38;;;;;;;;;;;;;;;8.97;60.38;98920.72;5032493;28;19913;-83
2023/12/24 03:38:04;;;;;;;;;;;;;;;8.95;60.20;98920.91;5033107;28;20318;-81
2023/12/24 03:40:29;;;;;;;;;;;;;;;8.94;60.22;98921.91;5032169;28;19913;-81
2023/12/24 03:42:54;;;;;;;;;;;;;;;8.93;60.23;98920.28;5033156;28;19920;-83
2023/12/24 03:45:20;;;;;;;;;;;;;;;8.90;60.56;98925.88;5033112;28;20426;-83
2023/12/24 03:47:45;;;;;;;;;;;;;;;8.87;60.28;98924.44;5033215;28;19992;-84
2023/12/24 03:50:10;;;;;;;;;;;;;;;8.87;60.63;98923.59;5032028;28;20379;-83
2023/12/24 03:52:36;;;;;;;;;;;;;;;8.86;60.45;98922.78;5031539;28;20004;-84
2023/12/24 03:55:01;;;;;;;;;;;;;;;8.84;60.41;98922.16;5031410;28;20379;-83
2023/12/24 03:57:26;;;;;;;;;;;;;;;8.83;60.58;98938.13;5031451;28;20004;-82
2023/12/24 03:59:51;;;;;;;;;;;;;;;8.82;60.34;98945.22;5032767;28;19913;-83
2023/12/24 04:02:17;;;;;;;;;;;;;;;8.81;60.40;98940.94;5032947;28;19949;-83
2023/12/24 04:04:48;;;;;;;;;;;;;;;8.81;60.24;98937.50;5031752;28;19913;-83
2023/12/24 04:07:16;;;;;;;;;;;;;;;8.78;60.45;98946.56;5032644;28;19913;-84
2023/12/24 04:09:42;;;;;;;;;;;;;;;8.82;60.18;98953.09;5031134;28;20004;-83
2023/12/24 04:12:08;;;;;;;;;;;;;;;8.86;60.20;98959.66;5032329;28;19928;-84
2023/12/24 04:14:35;;;;;;;;;;;;;;;8.89;59.87;98945.31;5031207;28;19920;-82
2023/12/24 04:17:02;;;;;;;;;;;;;;;8.98;59.60;98952.13;5032542;28;19920;-83
2023/12/24 04:19:27;;;;;;;;;;;;;;;9.03;59.11;98956.84;5032422;28;19921;-84
2023/12/24 04:21:52;;;;;;;;;;;;;;;9.09;59.38;98962.22;5031116;28;19917;-83
2023/12/24 04:24:17;;;;;;;;;;;;;;;9.13;59.18;98968.75;5032284;28;20370;-82
2023/12/24 04:26:43;;;;;;;;;;;;;;;9.17;59.57;98972.66;5032221;28;19917;-83
2023/12/24 04:29:08;;;;;;;;;;;;;;;9.21;59.12;98973.09;5030860;28;20315;-83
2023/12/24 04:31:37;;;;;;;;;;;;;;;9.26;58.56;98991.00;5032278;28;19923;-83
2023/12/24 04:34:02;;;;;;;;;;;;;;;9.30;58.76;98985.16;5031023;28;19917;-82
2023/12/24 04:36:27;;;;;;;;;;;;;;;9.31;58.26;98989.44;5032512;28;19913;-83
2023/12/24 04:38:53;;;;;;;;;;;;;;;9.32;58.62;98991.06;5030860;28;19921;-82
2023/12/24 04:41:18;;;;;;;;;;;;;;;9.33;58.30;99005.88;5032154;28;20310;-83
2023/12/24 04:43:43;;;;;;;;;;;;;;;9.33;58.28;99003.25;5032387;28;19976;-83
2023/12/24 04:46:08;;;;;;;;;;;;;;;9.33;57.89;98997.97;5030915;28;19929;-83
2023/12/24 04:48:34;;;;;;;;;;;;;;;9.34;57.98;99004.88;5032105;28;19913;-83
2023/12/24 04:50:59;;;;;;;;;;;;;;;9.33;57.29;99002.44;5032048;28;19924;-83
2023/12/24 04:53:24;;;;;;;;;;;;;;;9.35;57.95;99014.41;5031899;28;19919;-83
2023/12/24 04:55:49;;;;;;;;;;;;;;;9.35;58.00;99021.50;5030560;28;20365;-83
2023/12/24 04:58:15;;;;;;;;;;;;;;;9.34;57.75;99027.78;5031765;28;19909;-83
2023/12/24 05:00:40;;;;;;;;;;;;;;;9.33;57.58;99018.22;5030509;28;19949;-83
2023/12/24 05:03:05;;;;;;;;;;;;;;;9.31;57.46;99033.41;5032016;28;19935;-83
2023/12/24 05:05:31;;;;;;;;;;;;;;;9.27;57.91;99037.41;5031845;28;19913;-83
2023/12/24 05:07:56;;;;;;;;;;;;;;;9.24;57.52;99049.13;5030601;28;19967;-84
2023/12/24 05:10:21;;;;;;;;;;;;;;;9.21;57.33;99047.66;5031479;28;19917;-83
2023/12/24 05:12:46;;;;;;;;;;;;;;;9.18;57.54;99053.28;5030423;28;20000;-83
2023/12/24 05:15:12;;;;;;;;;;;;;;;9.18;57.62;99055.94;5030568;28;19913;-83
2023/12/24 05:17:37;;;;;;;;;;;;;;;9.21;58.17;99073.19;5031664;28;19913;-84
2023/12/24 05:20:03;;;;;;;;;;;;;;;9.20;56.87;99071.56;5031805;28;19920;-83
2023/12/24 05:22:28;;;;;;;;;;;;;;;9.20;57.39;99069.75;5030423;28;20405;-84
2023/12/24 05:24:53;;;;;;;;;;;;;;;9.20;57.29;99067.09;5030388;28;19939;-83
2023/12/24 05:27:18;;;;;;;;;;;;;;;9.20;57.34;99059.19;5030319;28;19913;-84
2023/12/24 05:29:44;;;;;;;;;;;;;;;9.21;57.50;99066.09;5030291;28;19921;-83
2023/12/24 05:32:09;;;;;;;;;;;;;;;9.22;56.69;99077.47;5031772;28;20382;-83
2023/12/24 05:34:34;;;;;;;;;;;;;;;9.21;56.47;99083.72;5031548;28;19916;-83
2023/12/24 05:37:00;;;;;;;;;;;;;;;9.22;56.68;99091.44;5030246;28;20000;-83
2023/12/24 05:39:26;;;;;;;;;;;;;;;9.24;56.65;99104.44;5030342;28;19959;-83
2023/12/24 05:41:51;;;;;;;;;;;;;;;9.26;55.80;99102.44;5031877;28;19960;-83
2023/12/24 05:44:16;;;;;;;;;;;;;;;9.29;56.12;99107.34;5030361;28;19920;-83
2023/12/24 05:46:42;;;;;;;;;;;;;;;9.28;55.98;99113.63;5031351;28;20395;-83
2023/12/24 05:49:07;;;;;;;;;;;;;;;9.29;56.23;99117.88;5031549;28;19913;-83
2023/12/24 05:51:32;;;;;;;;;;;;;;;9.26;55.89;99120.06;5031423;28;19979;-83
2023/12/24 05:53:58;;;;;;;;;;;;;;;9.27;55.96;99125.16;5031386;28;20410;-84
2023/12/24 05:56:23;;;;;;;;;;;;;;;9.30;56.27;99139.78;5029985;28;19913;-82
2023/12/24 05:58:48;;;;;;;;;;;;;;;9.29;56.27;99128.44;5033143;28;20397;-82
2023/12/24 06:01:13;;;;;;;;;;;;;;;9.31;55.11;99141.41;5033545;28;20048;-82
2023/12/24 06:03:39;;;;;;;;;;;;;;;9.35;56.08;99154.06;5033426;28;20309;-83
2023/12/24 06:06:04;;;;;;;;;;;;;;;9.38;55.30;99156.31;5033647;28;19928;-83
2023/12/24 06:08:29;;;;;;;;;;;;;;;9.38;54.49;99155.50;5034980;28;20374;-82
2023/12/24 06:10:54;;;;;;;;;;;;;;;9.42;54.34;99164.69;5033480;28;19918;-83
2023/12/24 06:13:20;;;;;;;;;;;;;;;9.46;55.04;99168.59;5035113;28;20469;-82
2023/12/24 06:15:45;;;;;;;;;;;;;;;9.48;55.26;99170.06;5034679;28;19920;-83
2023/12/24 06:18:12;;;;;;;;;;;;;;;9.50;55.04;99157.53;5033336;28;19995;-83
2023/12/24 06:20:38;;;;;;;;;;;;;;;9.54;55.16;99169.34;5034663;28;19913;-83
2023/12/24 06:23:03;;;;;;;;;;;;;;;9.55;54.43;99168.34;5033201;28;19967;-83
2023/12/24 06:25:28;;;;;;;;;;;;;;;9.57;54.93;99176.88;5034700;28;19971;-82
2023/12/24 06:27:54;;;;;;;;;;;;;;;9.60;54.31;99180.16;5033290;28;19913;-83
2023/12/24 06:30:20;;;;;;;;;;;;;;;9.63;54.82;99177.97;5033227;28;19949;-82
2023/12/24 06:32:46;;;;;;;;;;;;;;;9.66;54.88;99175.00;5033294;28;19913;-83
2023/12/24 06:35:12;;;;;;;;;;;;;;;9.64;54.08;99181.44;5033198;28;19913;-83
2023/12/24 06:37:38;;;;;;;;;;;;;;;9.63;53.83;99172.72;5033132;28;19928;-82
2023/12/24 06:40:03;;;;;;;;;;;;;;;9.66;54.86;99180.28;5034463;28;20298;-83
2023/12/24 06:42:29;;;;;;;;;;;;;;;9.69;55.32;99187.00;5033190;28;20004;-83
2023/12/24 06:44:54;;;;;;;;;;;;;;;9.70;54.28;99186.81;5034524;28;19992;-83
2023/12/24 06:47:19;;;;;;;;;;;;;;;9.72;55.30;99195.38;5034054;28;19944;-84
2023/12/24 06:49:44;;;;;;;;;;;;;;;9.74;54.67;99195.19;5032675;28;19913;-83
2023/12/24 06:52:10;;;;;;;;;;;;;;;9.73;54.24;99204.91;5032736;28;20344;-83
2023/12/24 06:54:35;;;;;;;;;;;;;;;9.80;54.24;99200.56;5032678;28;19909;-84
2023/12/24 06:57:01;;;;;;;;;;;;;;;9.86;54.66;99199.00;5032633;28;19917;-83
2023/12/24 06:59:26;;;;;;;;;;;;;;;9.91;53.57;99190.56;5032584;28;19943;-83
2023/12/24 07:01:51;;;;;;;;;;;;;;;9.94;53.00;99193.66;5032797;28;19997;-83
2023/12/24 07:04:16;;;;;;;;;;;;;;;10.00;53.26;99202.66;5033822;28;19924;-83
2023/12/24 07:06:42;;;;;;;;;;;;;;;10.05;54.09;99187.09;5034137;28;19939;-83
2023/12/24 07:09:07;;;;;;;;;;;;;;;10.05;52.89;99198.47;5032704;28;20003;-83
2023/12/24 07:11:32;;;;;;;;;;;;;;;10.10;53.60;99201.38;5032330;28;19921;-83
2023/12/24 07:13:58;;;;;;;;;;;;;;;10.14;52.74;99212.38;5032370;28;19920;-83
2023/12/24 07:16:23;;;;;;;;;;;;;;;10.18;53.06;99209.19;5032205;28;20382;-83
2023/12/24 07:18:48;;;;;;;;;;;;;;;10.23;52.92;99211.31;5032320;28;19917;-83
2023/12/24 07:21:14;;;;;;;;;;;;;;;10.30;53.73;99216.66;5033406;28;19913;-83
2023/12/24 07:23:41;;;;;;;;;;;;;;;10.33;53.04;99226.84;5031879;28;19913;-83
2023/12/24 07:26:07;;;;;;;;;;;;;;;10.39;52.98;99234.84;5033409;28;19917;-82
2023/12/24 07:28:32;;;;;;;;;;;;;;;10.44;53.11;99229.03;5033517;28;19914;-82
2023/12/24 07:30:57;;;;;;;;;;;;;;;10.22;52.97;99187.75;5033334;28;19917;-83
2023/12/24 07:33:23;;;;;;;;;;;;;;;10.58;51.57;99253.78;5031921;28;20306;-83
2023/12/24 07:35:48;;;;;;;;;;;;;;;10.67;52.14;99260.59;5031904;28;19956;-83
2023/12/24 07:38:13;;;;;;;;;;;;;;;10.76;52.69;99276.13;5031839;28;19925;-83
2023/12/24 07:40:39;;;;;;;;;;;;;;;10.90;52.97;99268.34;5031838;28;20374;-82
2023/12/24 07:43:04;;;;;;;;;;;;;;;10.95;51.95;99268.63;5033262;28;19973;-82
2023/12/24 07:45:29;;;;;;;;;;;;;;;11.03;52.68;99276.44;5033065;28;19913;-81
2023/12/24 07:47:55;;;;;;;;;;;;;;;11.07;51.03;99272.41;5032783;28;20450;-83
2023/12/24 07:50:20;;;;;;;;;;;;;;;11.16;51.35;99281.06;5031395;28;19924;-82
2023/12/24 07:52:45;;;;;;;;;;;;;;;11.20;50.39;99288.41;5032864;28;19919;-83
2023/12/24 07:55:10;;;;;;;;;;;;;;;11.26;51.50;99300.88;5031490;28;20441;-82
2023/12/24 07:57:36;;;;;;;;;;;;;;;11.35;49.53;99297.09;5031584;28;19940;-83
2023/12/24 08:00:02;;;;;;;;;;;;;;;11.43;50.09;99294.34;5032738;28;20291;-80
2023/12/24 08:02:27;;;;;;;;;;;;;;;11.51;49.72;99290.75;5032720;28;19977;-80
2023/12/24 08:04:55;;;;;;;;;;;;;;;11.59;49.97;99279.22;5031273;28;19913;-82
2023/12/24 08:07:21;;;;;;;;;;;;;;;11.64;49.47;99282.09;5031143;28;19917;-82
2023/12/24 08:09:46;;;;;;;;;;;;;;;11.69;48.72;99291.09;5031024;28;20358;-82
2023/12/24 08:12:11;;;;;;;;;;;;;;;11.76;49.74;99283.22;5032615;28;19920;-81
2023/12/24 08:14:36;;;;;;;;;;;;;;;11.77;49.85;99292.78;5031162;28;19967;-81
2023/12/24 08:17:02;;;;;;;;;;;;;;;11.75;50.21;99284.22;5031109;28;19920;-82
2023/12/24 08:19:27;;;;;;;;;;;;;;;11.74;48.97;99290.53;5031137;28;20004;-82
2023/12/24 08:21:52;;;;;;;;;;;;;;;11.76;49.51;99286.69;5030812;28;20405;-82
2023/12/24 08:24:18;;;;;;;;;;;;;;;11.74;49.43;99293.16;5032641;28;20006;-82
2023/12/24 08:26:43;;;;;;;;;;;;;;;11.76;49.60;99299.09;5032379;28;19920;-82
2023/12/24 08:29:09;;;;;;;;;;;;;;;11.78;49.91;99289.97;5031000;28;19920;-82
2023/12/24 08:31:34;;;;;;;;;;;;;;;11.83;50.01;99299.97;5030950;28;19971;-82
2023/12/24 08:33:59;;;;;;;;;;;;;;;11.86;49.85;99304.88;5030740;28;19982;-81
2023/12/24 08:36:25;;;;;;;;;;;;;;;11.93;49.02;99291.75;5032374;28;19920;-81
2023/12/24 08:38:50;;;;;;;;;;;;;;;11.99;48.72;99290.97;5030847;28;19927;-82
2023/12/24 08:41:15;;;;;;;;;;;;;;;12.07;49.19;99296.94;5030986;28;19920;-82
2023/12/24 08:43:40;;;;;;;;;;;;;;;12.12;48.43;99288.41;5032282;28;19996;-82
2023/12/24 08:46:06;;;;;;;;;;;;;;;12.20;48.55;99284.78;5032054;28;19917;-82
2023/12/24 08:48:31;;;;;;;;;;;;;;;12.27;49.04;99281.16;5031115;28;20461;-82
2023/12/24 08:50:56;;;;;;;;;;;;;;;12.33;49.54;99292.81;5030695;28;20291;-82
2023/12/24 08:53:22;;;;;;;;;;;;;;;12.37;49.17;99276.34;5030721;28;19913;-82
2023/12/24 08:55:47;;;;;;;;;;;;;;;12.43;47.78;99281.84;5031930;28;20310;-82
2023/12/24 08:58:12;;;;;;;;;;;;;;;12.48;47.92;99276.78;5031857;28;19913;-81
2023/12/24 09:00:38;;;;;;;;;;;;;;;12.52;47.95;99270.09;5030620;28;19976;-82
2023/12/24 09:03:03;;;;;;;;;;;;;;;12.56;46.67;99274.78;5031924;28;19916;-81
2023/12/24 09:05:28;;;;;;;;;;;;;;;12.66;47.97;99266.50;5031696;28;19913;-82
2023/12/24 09:07:54;;;;;;;;;;;;;;;12.73;46.63;99260.22;5030510;28;20309;-81
2023/12/24 09:10:19;;;;;;;;;;;;;;;12.83;46.61;99267.78;5031882;28;19917;-81
2023/12/24 09:12:44;;;;;;;;;;;;;;;12.86;45.61;99254.13;5031716;28;19919;-81
2023/12/24 09:15:10;;;;;;;;;;;;;;;12.91;46.33;99254.34;5031650;28;19967;-82
2023/12/24 09:17:35;;;;;;;;;;;;;;;12.90;46.82;99252.72;5030542;28;20306;-81
2023/12/24 09:20:00;;;;;;;;;;;;;;;12.88;46.50;99246.81;5030415;28;19956;-81
2023/12/24 09:22:26;;;;;;;;;;;;;;;12.80;46.36;99267.38;5030302;28;19920;-80
2023/12/24 09:24:51;;;;;;;;;;;;;;;12.76;46.84;99256.34;5031830;28;19917;-81
2023/12/24 09:27:16;;;;;;;;;;;;;;;12.77;46.74;99259.81;5031610;28;19925;-81
2023/12/24 09:29:41;;;;;;;;;;;;;;;12.72;46.38;99252.47;5030141;28;19924;-81
2023/12/24 09:32:07;;;;;;;;;;;;;;;12.73;47.32;99249.63;5030747;28;19923;-82
2023/12/24 09:34:33;;;;;;;;;;;;;;;12.76;46.64;99266.13;5033978;28;19913;-82
2023/12/24 09:36:59;;;;;;;;;;;;;;;12.81;45.90;99243.31;5035131;28;20494;-82
2023/12/24 09:39:24;;;;;;;;;;;;;;;12.85;46.39;99231.31;5033945;28;19917;-82
2023/12/24 09:41:49;;;;;;;;;;;;;;;12.90;46.63;99236.00;5035691;28;20318;-82
2023/12/24 09:44:14;;;;;;;;;;;;;;;12.94;45.12;99227.47;5034113;28;19936;-82
2023/12/24 09:46:40;;;;;;;;;;;;;;;12.97;46.14;99229.72;5035731;28;19913;-82
2023/12/24 09:49:05;;;;;;;;;;;;;;;13.00;45.72;99234.59;5035249;28;19964;-82
2023/12/24 09:51:32;;;;;;;;;;;;;;;13.07;45.28;99233.81;5033737;28;19924;-82
2023/12/24 09:53:58;;;;;;;;;;;;;;;13.13;45.64;99238.28;5034115;28;19924;-82
2023/12/24 09:56:23;;;;;;;;;;;;;;;13.16;46.01;99243.19;5033821;28;19913;-82
2023/12/24 09:58:48;;;;;;;;;;;;;;;13.24;45.39;99240.38;5034986;28;20055;-81
2023/12/24 10:01:14;;;;;;;;;;;;;;;13.31;44.50;99238.53;5034832;28;19967;-82
2023/12/24 10:03:39;;;;;;;;;;;;;;;13.40;44.82;99236.53;5033554;28;20330;-82
2023/12/24 10:06:07;;;;;;;;;;;;;;;13.49;44.83;99232.66;5034939;28;19967;-81
2023/12/24 10:08:32;;;;;;;;;;;;;;;13.55;44.64;99243.28;5033506;28;19913;-82
2023/12/24 10:11:22;;;;;;;;;;;;;;;13.60;42.38;99214.28;5034529;28;19939;-82
2023/12/24 10:13:57;;;;;;;;;;;;;;;13.66;43.48;99218.78;5034764;28;19960;-82
2023/12/24 10:16:22;;;;;;;;;;;;;;;13.72;43.91;99217.13;5034667;28;19921;-81
2023/12/24 10:18:49;;;;;;;;;;;;;;;13.76;42.03;99204.28;5034595;28;19913;-81
2023/12/24 10:21:14;;;;;;;;;;;;;;;13.81;42.34;99226.50;5033345;28;19971;-82
2023/12/24 10:23:40;;;;;;;;;;;;;;;13.87;42.51;99217.72;5033715;28;19917;-81
2023/12/24 10:26:06;;;;;;;;;;;;;;;13.94;42.75;99220.38;5034491;28;19914;-82
2023/12/24 10:28:32;;;;;;;;;;;;;;;13.98;42.50;99217.09;5033295;28;20139;-82
2023/12/24 10:31:07;;;;;;;;;;;;;;;14.02;40.69;99208.72;5034475;28;20344;-82
2023/12/24 10:33:33;;;;;;;;;;;;;;;14.00;41.00;99200.97;5034393;28;19920;-82
2023/12/24 10:35:59;;;;;;;;;;;;;;;14.04;40.57;99209.31;5033518;28;19909;-82
2023/12/24 10:38:26;;;;;;;;;;;;;;;14.06;41.59;99209.94;5032776;28;20421;-81
2023/12/24 10:40:52;;;;;;;;;;;;;;;14.10;41.13;99200.53;5033145;28;19913;-82
2023/12/24 10:43:17;;;;;;;;;;;;;;;14.14;41.15;99201.75;5032657;28;19992;-81
2023/12/24 10:45:42;;;;;;;;;;;;;;;14.19;40.64;99217.88;5032840;28;19919;-81
2023/12/24 10:48:07;;;;;;;;;;;;;;;14.22;41.83;99204.19;5034087;28;19913;-81
2023/12/24 10:50:33;;;;;;;;;;;;;;;14.20;40.70;99201.75;5032666;28;19917;-82
2023/12/24 10:52:58;;;;;;;;;;;;;;;14.24;41.66;99196.81;5034294;28;19913;-82
2023/12/24 10:55:24;;;;;;;;;;;;;;;14.23;41.92;99196.00;5032901;28;20291;-82
2023/12/24 10:58:01;;;;;;;;;;;;;;;14.23;41.06;99198.66;5034198;28;19920;-81
2023/12/24 11:00:26;;;;;;;;;;;;;;;14.25;41.47;99209.06;5032705;28;19952;-81
2023/12/24 11:02:52;;;;;;;;;;;;;;;14.27;41.20;99199.88;5032714;28;19920;-81
2023/12/24 11:05:36;;;;;;;;;;;;;;;14.28;40.65;99198.84;5033756;28;19913;-82
2023/12/24 11:08:01;;;;;;;;;;;;;;;14.28;41.78;99196.19;5032356;28;19910;-82
2023/12/24 11:10:37;;;;;;;;;;;;;;;14.27;40.71;99186.59;5032200;28;19987;-81
2023/12/24 11:13:02;;;;;;;;;;;;;;;14.28;41.07;99188.22;5033441;28;19913;-81
2023/12/24 11:15:41;;;;;;;;;;;;;;;14.29;40.47;99184.53;5033509;28;20474;-81
2023/12/24 11:18:06;;;;;;;;;;;;;;;14.31;40.58;99182.50;5033612;28;19949;-82
2023/12/24 11:20:39;;;;;;;;;;;;;;;14.32;40.45;99178.00;5033304;28;20004;-81
2023/12/24 11:23:04;;;;;;;;;;;;;;;14.36;40.58;99181.03;5032091;28;19913;-81
2023/12/24 11:25:43;;;;;;;;;;;;;;;14.41;41.23;99184.69;5031901;28;20059;-81
2023/12/24 11:28:10;;;;;;;;;;;;;;;14.45;40.61;99199.22;5033036;28;19913;-82
2023/12/24 11:31:05;;;;;;;;;;;;;;;14.50;41.40;99177.34;5033206;28;19918;-81
2023/12/24 11:33:30;;;;;;;;;;;;;;;14.53;41.08;99185.69;5024490;28;20000;-81
2023/12/24 11:35:56;;;;;;;;;;;;;;;14.55;39.85;99190.78;5032882;28;19944;-81
2023/12/24 11:38:33;;;;;;;;;;;;;;;14.57;41.02;99181.59;5031825;28;19921;-82
2023/12/24 11:41:06;;;;;;;;;;;;;;;14.57;40.82;99189.56;5033074;28;20455;-82
2023/12/24 11:43:31;;;;;;;;;;;;;;;14.59;40.72;99178.72;5031527;28;19909;-81
2023/12/24 11:45:57;;;;;;;;;;;;;;;14.60;39.41;99178.50;5032804;28;19925;-82
2023/12/24 11:48:32;;;;;;;;;;;;;;;14.61;40.08;99180.13;5033178;28;19976;-81
2023/12/24 11:51:02;;;;;;;;;;;;;;;14.59;39.61;99182.19;5031535;28;19921;-82
2023/12/24 11:53:29;;;;;;;;;;;;;;;14.59;39.44;99194.66;5032722;28;20309;-81
2023/12/24 11:56:12;;;;;;;;;;;;;;;14.56;40.90;99195.06;5032250;28;20453;-82
2023/12/24 11:58:38;;;;;;;;;;;;;;;14.51;41.24;99185.09;5031372;28;19935;-82
2023/12/24 12:01:04;;;;;;;;;;;;;;;14.50;41.61;99177.34;5028173;28;19917;-81
2023/12/24 12:03:33;;;;;;;;;;;;;;;14.48;41.15;99177.53;5031739;28;19935;-81
2023/12/24 12:05:59;;;;;;;;;;;;;;;14.51;40.51;99171.81;5031323;28;19967;-81
2023/12/24 12:08:24;;;;;;;;;;;;;;;14.57;41.16;99178.13;5031399;28;19913;-81
2023/12/24 12:10:50;;;;;;;;;;;;;;;14.60;40.09;99181.16;5031216;28;20008;-82
2023/12/24 12:13:16;;;;;;;;;;;;;;;14.63;40.50;99171.94;5032464;28;20007;-82
2023/12/24 12:15:41;;;;;;;;;;;;;;;14.61;40.58;99177.47;5032586;28;19963;-82
2023/12/24 12:18:06;;;;;;;;;;;;;;;14.62;40.39;99171.13;5032135;28;19960;-82
2023/12/24 12:20:32;;;;;;;;;;;;;;;14.61;40.54;99169.50;5032457;28;20291;-82
2023/12/24 12:22:57;;;;;;;;;;;;;;;14.62;39.58;99171.13;5030831;28;19920;-81
2023/12/24 12:25:22;;;;;;;;;;;;;;;14.65;40.02;99166.41;5030820;28;19913;-82
2023/12/24 12:27:48;;;;;;;;;;;;;;;14.67;41.22;99146.56;5032129;28;19917;-81
2023/12/24 12:30:13;;;;;;;;;;;;;;;14.68;40.37;99144.72;5030732;28;20322;-81
2023/12/24 12:32:38;;;;;;;;;;;;;;;14.68;40.61;99150.03;5030973;28;19913;-81
2023/12/24 12:35:03;;;;;;;;;;;;;;;14.68;40.88;99152.72;5031999;28;19916;-81
2023/12/24 12:37:29;;;;;;;;;;;;;;;14.66;40.48;99150.25;5031912;28;19921;-81
2023/12/24 12:39:54;;;;;;;;;;;;;;;14.68;40.89;99163.34;5032185;28;19913;-82
2023/12/24 12:42:19;;;;;;;;;;;;;;;14.70;40.21;99169.25;5030578;28;19914;-82
2023/12/24 12:44:45;;;;;;;;;;;;;;;14.73;40.24;99164.31;5030659;28;19913;-82
2023/12/24 12:47:12;;;;;;;;;;;;;;;14.73;41.14;99174.13;5030709;28;19913;-82